Latest Coastal Weather Observations for Darwin Harbour

IDD60701

Issued at 10:31 pm CST Tuesday 30 August 2016 (issued every 10 minutes, with the page automatically refreshed every 10 minutes)

About coastal observations | Map of coastal stations | Coastal observations for NT | Marine services | Other Formats
Station Details ID: 014072 Name: DARWIN NTC AWS Lat: -12.47 Lon: 130.85 Height: 0.0 m
Data from the previous 72 hours. | See also: Recent months for locations in Northern Territory
Date/Time
CST
Temp
°C
Wind Pressure Rain since
9am
mm
Weather Cloud Vis
km
Sea
Height
m
Swell
Dir  Spd
kts
Gust
kts
hPa Trend Height
m
Period
s
Dir
30/10:30pm 27.8 NE 3 6 1013.2 - - - - - - - - -
30/10:00pm 27.9 NE 2 5 1013.1 - - - - - - - - -
30/09:30pm 28.3 NE 3 6 1013.0 - - - - - - - - -
30/09:00pm 28.3 NE 2 4 1012.7 - - - - - - - - -
30/08:30pm 28.6 NE 2 5 1012.3 - - - - - - - - -
30/08:00pm 28.7 NNE 2 6 1012.0 - - - - - - - - -
30/07:30pm 29.1 NNE 4 8 1011.8 - - - - - - - - -
30/07:00pm 29.4 NNE 5 11 1011.3 - - - - - - - - -
30/06:30pm 29.6 NE 7 15 1010.9 - - - - - - - - -
30/06:00pm 30.1 NE 10 18 1010.7 - - - - - - - - -
30/05:30pm 30.6 NNE 9 17 1010.6 - - - - - - - - -
30/05:00pm 31.1 NE 8 15 1010.3 - - - - - - - - -
30/04:30pm 31.4 NE 8 17 1010.1 - - - - - - - - -
30/04:00pm 31.7 NE 6 13 1010.2 - - - - - - - - -
30/03:30pm 31.3 NE 6 13 1010.4 - - - - - - - - -
30/03:00pm 31.2 NE 6 13 1010.7 - - - - - - - - -
30/02:30pm 29.9 WNW 7 12 1011.2 - - - - - - - - -
30/02:00pm 29.0 WNW 10 12 1011.7 - - - - - - - - -
30/01:30pm 29.0 WNW 9 13 1012.2 - - - - - - - - -
30/01:00pm 28.2 W 8 12 1012.9 - - - - - - - - -
30/12:30pm 27.5 W 7 9 1013.6 - - - - - - - - -
30/12:00pm 27.7 SSW 3 5 1014.2 - - - - - - - - -
30/11:30am 28.6 ESE 5 6 1014.8 - - - - - - - - -
30/11:00am 28.3 E 5 7 1015.4 - - - - - - - - -
30/10:30am 27.8 ENE 6 9 1015.8 - - - - - - - - -
30/10:00am 27.9 E 5 8 1016.0 - - - - - - - - -
30/09:30am 27.3 ENE 7 13 1015.8 - - - - - - - - -
30/09:00am 27.1 ENE 6 11 1015.6 - - - - - - - - -
30/08:30am 26.4 ENE 5 9 1015.2 - - - - - - - - -
30/08:00am 25.9 ENE 5 9 1015.0 - - - - - - - - -
30/07:30am 25.6 ENE 6 8 1014.7 - - - - - - - - -
30/07:00am 25.5 ENE 5 7 1014.4 - - - - - - - - -
30/06:30am 25.5 ENE 2 4 1013.9 - - - - - - - - -
30/06:00am 25.8 ENE 2 4 1013.6 - - - - - - - - -
30/05:30am 25.8 NE 2 3 1013.3 - - - - - - - - -
30/05:00am 25.9 NNE 2 3 1013.1 - - - - - - - - -
30/04:30am 25.6 ENE 3 5 1012.8 - - - - - - - - -
30/04:00am 25.8 NE 1 3 1012.8 - - - - - - - - -
30/03:30am 25.9 NE 1 3 1012.8 - - - - - - - - -
30/03:00am 26.2 WSW 2 4 1012.9 - - - - - - - - -
30/02:30am 26.4 WNW 2 4 1013.2 - - - - - - - - -
30/02:00am 26.8 NW 3 5 1013.4 - - - - - - - - -
30/01:30am 26.5 WNW 4 7 1013.3 - - - - - - - - -
30/01:00am 26.9 NW 3 7 1013.2 - - - - - - - - -
30/12:30am 26.9 NW 4 7 1013.4 - - - - - - - - -
30/12:00am 27.1 NW 3 7 1013.5 - - - - - - - - -
 
Date/Time
CST
Temp
°C
Wind Pressure Rain since
9am
mm
Weather Cloud Vis
km
Sea
Height
m
Swell
Dir  Spd
kts
Gust
kts
hPa Trend Height
m
Period
s
Dir
29/11:30pm 27.2 NNW 6 11 1013.2 - - - - - - - - -
29/11:00pm 27.4 N 5 11 1013.1 - - - - - - - - -
29/10:30pm 27.2 NNE 6 12 1012.5 - - - - - - - - -
29/10:00pm 27.4 NNE 5 11 1012.3 - - - - - - - - -
29/09:30pm 27.4 NNE 5 11 1012.1 - - - - - - - - -
29/09:00pm 27.4 NE 3 7 1011.8 - - - - - - - - -
29/08:30pm 27.5 NE 6 11 1011.4 - - - - - - - - -
29/08:00pm 28.1 NNE 5 10 1011.1 - - - - - - - - -
29/07:30pm 28.0 NE 6 14 1010.8 - - - - - - - - -
29/07:00pm 28.3 NE 7 14 1010.4 - - - - - - - - -
29/06:30pm 29.0 NE 9 16 1010.2 - - - - - - - - -
29/06:00pm 29.6 NE 7 17 1010.0 - - - - - - - - -
29/05:30pm 30.1 NE 8 16 1009.6 - - - - - - - - -
29/05:00pm 30.1 NNE 10 21 1009.6 - - - - - - - - -
29/04:30pm 30.3 NNE 9 19 1009.5 - - - - - - - - -
29/04:00pm 30.4 NNE 11 20 1009.5 - - - - - - - - -
29/03:30pm 30.4 NNE 10 20 1009.5 - - - - - - - - -
29/03:00pm 30.4 NNE 9 17 1009.9 - - - - - - - - -
29/02:30pm 30.1 NNW 5 13 1010.5 - - - - - - - - -
29/02:00pm 30.3 N 5 14 1011.1 - - - - - - - - -
29/01:30pm 29.8 NNW 4 11 1011.5 - - - - - - - - -
29/01:00pm 28.8 WNW 5 15 1012.1 - - - - - - - - -
29/12:30pm 28.5 W 5 9 1012.6 - - - - - - - - -
29/12:00pm 30.1 ENE 4 8 1012.9 - - - - - - - - -
29/11:30am 29.1 ENE 5 9 1013.6 - - - - - - - - -
29/11:00am 28.2 ENE 6 9 1014.1 - - - - - - - - -
29/10:30am 27.7 ENE 6 13 1014.4 - - - - - - - - -
29/10:00am 27.2 ENE 7 11 1014.7 - - - - - - - - -
29/09:30am 26.8 ENE 6 12 1014.7 - - - - - - - - -
29/09:00am 26.1 ENE 4 7 1014.5 - - - - - - - - -
29/08:30am 25.1 NE 3 7 1014.0 - - - - - - - - -
29/08:00am 23.9 ENE 4 6 1013.7 - - - - - - - - -
29/07:30am 24.1 ENE 3 5 1013.5 - - - - - - - - -
29/07:00am 23.6 ENE 4 5 1013.1 - - - - - - - - -
29/06:30am 23.6 ENE 3 5 1012.9 - - - - - - - - -
29/06:00am 23.8 ENE 3 5 1012.5 - - - - - - - - -
29/05:30am 24.4 ESE 5 6 1012.1 - - - - - - - - -
29/05:00am 24.3 ESE 4 6 1011.8 - - - - - - - - -
29/04:30am 24.7 SSE 3 5 1011.6 - - - - - - - - -
29/04:00am 25.1 S 4 5 1011.6 - - - - - - - - -
29/03:30am 25.4 SSW 4 5 1011.6 - - - - - - - - -
29/03:00am 25.6 WSW 4 5 1011.8 - - - - - - - - -
29/02:30am 25.7 W 3 4 1012.1 - - - - - - - - -
29/02:00am 25.6 W 3 4 1012.3 - - - - - - - - -
29/01:30am 25.6 W 3 4 1012.5 - - - - - - - - -
29/01:00am 25.8 NW 3 4 1012.6 - - - - - - - - -
29/12:30am 26.2 WSW 3 5 1012.8 - - - - - - - - -
29/12:00am 25.9 SW 3 8 1012.9 - - - - - - - - -
 
Date/Time
CST
Temp
°C
Wind Pressure Rain since
9am
mm
Weather Cloud Vis
km
Sea
Height
m
Swell
Dir  Spd
kts
Gust
kts
hPa Trend Height
m
Period
s
Dir
28/11:30pm 26.7 N 3 8 1012.6 - - - - - - - - -
28/11:00pm 26.2 NE 3 6 1012.5 - - - - - - - - -
28/10:30pm 27.0 N 2 2 1012.4 - - - - - - - - -
28/10:00pm 27.3 NE 2 3 1012.1 - - - - - - - - -
28/09:30pm 26.9 CALM 0 1 1012.0 - - - - - - - - -
28/09:00pm 27.2 SSW 1 2 1011.8 - - - - - - - - -
28/08:30pm 27.1 NE 2 7 1011.3 - - - - - - - - -
28/08:00pm 27.2 NE 5 10 1010.8 - - - - - - - - -
28/07:30pm 27.4 NE 6 12 1010.5 - - - - - - - - -
28/07:00pm 27.8 NE 7 12 1010.3 - - - - - - - - -
28/06:30pm 28.4 NNE 7 12 1010.1 - - - - - - - - -
28/06:00pm 29.0 NNE 6 12 1010.0 - - - - - - - - -
28/05:30pm 29.1 NNE 8 15 1009.9 - - - - - - - - -
28/05:00pm 29.9 NNE 6 13 1009.8 - - - - - - - - -
28/04:30pm 29.6 N 8 15 1009.8 - - - - - - - - -
28/04:00pm 29.8 NNE 8 14 1009.9 - - - - - - - - -
28/03:30pm 30.2 N 7 15 1010.1 - - - - - - - - -
28/03:00pm 29.9 N 7 13 1010.4 - - - - - - - - -
28/02:30pm 30.1 NNW 5 16 1010.8 - - - - - - - - -
28/02:00pm 29.1 NW 8 14 1011.2 - - - - - - - - -
28/01:30pm 29.0 W 5 7 1011.7 - - - - - - - - -
28/01:00pm 28.9 SSE 4 6 1012.2 - - - - - - - - -
28/12:30pm 29.3 E 5 9 1012.7 - - - - - - - - -
28/12:00pm 28.9 E 6 11 1013.2 - - - - - - - - -
28/11:30am 28.8 ENE 5 10 1014.1 - - - - - - - - -
28/11:00am 28.3 ENE 5 10 1014.5 - - - - - - - - -
28/10:30am 27.5 ENE 6 11 1014.9 - - - - - - - - -
28/10:00am 27.1 ENE 6 12 1015.2 - - - - - - - - -
28/09:30am 26.5 ENE 8 14 1015.3 - - - - - - - - -
28/09:00am 26.2 ENE 5 12 1015.3 - - - - - - - - -
28/08:30am 25.6 ENE 4 8 1015.2 - - - - - - - - -
28/08:00am 25.0 NE 4 8 1015.1 - - - - - - - - -
28/07:30am 24.6 ENE 3 7 1014.9 - - - - - - - - -
28/07:00am 24.2 NE 3 7 1014.5 - - - - - - - - -
28/06:30am 24.3 NE 4 7 1014.2 - - - - - - - - -
28/06:00am 24.6 NE 3 6 1014.0 - - - - - - - - -
28/05:30am 24.3 NE 4 9 1013.7 - - - - - - - - -
28/05:00am 24.6 NNE 5 7 1013.4 - - - - - - - - -
28/04:30am 24.2 NE 5 9 1013.3 - - - - - - - - -
28/04:00am 24.1 ENE 4 6 1013.3 - - - - - - - - -
28/03:30am 24.4 ENE 3 5 1013.3 - - - - - - - - -
28/03:00am 24.4 ENE 3 5 1013.6 - - - - - - - - -
28/02:30am 24.1 ENE 3 5 1013.7 - - - - - - - - -
28/02:00am 25.4 ESE 4 5 1013.9 - - - - - - - - -
28/01:30am 25.2 SE 2 4 1014.2 - - - - - - - - -
28/01:00am 24.8 ENE 1 3 1014.3 - - - - - - - - -
28/12:30am 25.7 NE 1 3 1014.5 - - - - - - - - -
28/12:00am 25.7 NE 2 3 1014.5 - - - - - - - - -
 
Date/Time
CST
Temp
°C
Wind Pressure Rain since
9am
mm
Weather Cloud Vis
km
Sea
Height
m
Swell
Dir  Spd
kts
Gust
kts
hPa Trend Height
m
Period
s
Dir
27/11:30pm 26.5 CALM 0 1 1014.4 - - - - - - - - -
27/11:00pm 26.8 SSE 1 2 1014.2 - - - - - - - - -

Other Formats:

Comma delimited format used in spreadsheet applications
http://www.bom.gov.au/fwo/IDD60701/IDD60701.95122.axf

JavaScript Object Notation format (JSON) in row-major order
http://www.bom.gov.au/fwo/IDD60701/IDD60701.95122.json